createdAt,value
2023-04-08T00:00:59.088Z,9.62
2023-04-08T00:03:28.752Z,9.61
2023-04-08T00:05:57.017Z,9.57
2023-04-08T00:08:25.201Z,9.56
2023-04-08T00:10:53.819Z,9.55
2023-04-08T00:13:21.993Z,9.54
2023-04-08T00:15:50.162Z,9.53
2023-04-08T00:18:18.460Z,9.51
2023-04-08T00:20:48.171Z,9.46
2023-04-08T00:23:16.317Z,9.45
2023-04-08T00:25:45.597Z,9.44
2023-04-08T00:28:13.983Z,9.46
2023-04-08T00:30:42.219Z,9.46
2023-04-08T00:33:10.591Z,9.46
2023-04-08T00:35:38.826Z,9.45
2023-04-08T00:38:08.989Z,9.45
2023-04-08T00:40:37.470Z,9.48
2023-04-08T00:43:05.684Z,9.51
2023-04-08T00:45:34.978Z,9.51
2023-04-08T00:48:04.026Z,9.51
2023-04-08T00:50:32.445Z,9.52
2023-04-08T00:53:00.545Z,9.53
2023-04-08T00:55:30.196Z,9.54
2023-04-08T00:57:58.742Z,9.54
2023-04-08T01:00:27.376Z,9.57
2023-04-08T01:03:05.135Z,9.57
2023-04-08T01:05:42.003Z,9.57
2023-04-08T01:08:13.005Z,9.55
2023-04-08T01:10:45.756Z,9.54
2023-04-08T01:13:18.857Z,9.54
2023-04-08T01:15:47.720Z,9.54
2023-04-08T01:18:18.075Z,9.52
2023-04-08T01:20:47.990Z,9.55
2023-04-08T01:23:32.653Z,9.54
2023-04-08T01:26:02.208Z,9.55
2023-04-08T01:28:32.675Z,9.59
2023-04-08T01:31:03.470Z,9.59
2023-04-08T01:33:32.771Z,9.60
2023-04-08T01:36:01.991Z,9.62
2023-04-08T01:38:33.065Z,9.61
2023-04-08T01:41:02.765Z,9.63
2023-04-08T01:43:32.319Z,9.60
2023-04-08T01:46:01.392Z,9.62
2023-04-08T01:48:30.679Z,9.65
2023-04-08T01:50:59.895Z,9.67
2023-04-08T01:53:28.072Z,9.72
2023-04-08T01:55:59.929Z,9.75
2023-04-08T01:58:37.549Z,9.77
2023-04-08T02:01:07.553Z,9.76
2023-04-08T02:03:37.170Z,9.75
2023-04-08T02:06:06.392Z,9.75
2023-04-08T02:08:36.271Z,9.72
2023-04-08T02:11:05.035Z,9.71
2023-04-08T02:13:34.901Z,9.68
2023-04-08T02:16:07.732Z,9.61
2023-04-08T02:18:38.851Z,9.53
2023-04-08T02:21:12.799Z,9.46
2023-04-08T02:23:42.695Z,9.41
2023-04-08T02:26:15.797Z,9.34
2023-04-08T02:28:45.867Z,9.32
2023-04-08T02:31:15.793Z,9.32
2023-04-08T02:33:44.631Z,9.33
2023-04-08T02:36:14.132Z,9.38
2023-04-08T02:38:42.334Z,9.39
2023-04-08T02:41:10.443Z,9.43
2023-04-08T02:43:38.594Z,9.45
2023-04-08T02:46:08.609Z,9.46
2023-04-08T02:48:37.078Z,9.50
2023-04-08T02:51:05.524Z,9.51
2023-04-08T02:53:33.674Z,9.51
2023-04-08T02:56:01.863Z,9.51
2023-04-08T02:58:30.048Z,9.50
2023-04-08T03:00:58.174Z,9.52
2023-04-08T03:03:29.869Z,9.51
2023-04-08T03:05:59.120Z,9.52
2023-04-08T03:08:27.471Z,9.52
2023-04-08T03:10:55.763Z,9.53
2023-04-08T03:13:23.949Z,9.55
2023-04-08T03:15:52.157Z,9.55
2023-04-08T03:18:20.410Z,9.55
2023-04-08T03:20:50.026Z,9.53
2023-04-08T03:23:18.218Z,9.53
2023-04-08T03:25:47.059Z,9.51
2023-04-08T03:28:15.156Z,9.48
2023-04-08T03:30:43.593Z,9.47
2023-04-08T03:33:11.746Z,9.46
2023-04-08T03:35:40.133Z,9.41
2023-04-08T03:38:09.744Z,9.43
2023-04-08T03:40:37.961Z,9.38
2023-04-08T03:43:06.871Z,9.30
2023-04-08T03:45:34.964Z,9.25
2023-04-08T03:48:03.054Z,9.16
2023-04-08T03:50:31.806Z,9.13
2023-04-08T03:52:59.972Z,9.10
2023-04-08T03:55:29.488Z,9.08
2023-04-08T03:57:57.588Z,9.12
2023-04-08T04:00:25.737Z,9.11
2023-04-08T04:02:55.532Z,9.09
2023-04-08T04:05:23.739Z,9.09
2023-04-08T04:07:51.913Z,9.11
2023-04-08T04:10:20.214Z,9.17
2023-04-08T04:12:51.563Z,9.16
2023-04-08T04:15:20.002Z,9.16
2023-04-08T04:17:50.435Z,9.16
2023-04-08T04:20:19.017Z,9.15
2023-04-08T04:22:47.191Z,9.13
2023-04-08T04:25:15.391Z,9.17
2023-04-08T04:27:43.620Z,9.18
2023-04-08T04:30:15.805Z,9.21
2023-04-08T04:32:44.194Z,9.24
2023-04-08T04:35:12.733Z,9.25
2023-04-08T04:37:41.013Z,9.24
2023-04-08T04:40:09.805Z,9.23
2023-04-08T04:42:38.136Z,9.21
2023-04-08T04:45:06.956Z,9.18
2023-04-08T04:47:36.635Z,9.19
2023-04-08T04:50:05.492Z,9.16
2023-04-08T04:52:33.938Z,9.15
2023-04-08T04:55:02.062Z,9.13
2023-04-08T04:57:30.517Z,9.10
2023-04-08T04:59:58.508Z,9.06
2023-04-08T05:02:27.310Z,9.03
2023-04-08T05:04:57.162Z,9.02
2023-04-08T05:07:25.575Z,8.99
2023-04-08T05:09:53.713Z,8.98
2023-04-08T05:12:22.034Z,8.97
2023-04-08T05:14:50.176Z,8.94
2023-04-08T05:17:18.329Z,8.93
2023-04-08T05:19:46.427Z,8.95
2023-04-08T05:22:16.104Z,8.94
2023-04-08T05:24:44.637Z,8.92
2023-04-08T05:27:12.805Z,8.93
2023-04-08T05:29:41.723Z,8.93
2023-04-08T05:32:09.822Z,8.92
2023-04-08T05:34:37.853Z,8.93
2023-04-08T05:37:06.186Z,8.92
2023-04-08T05:39:36.785Z,8.90
2023-04-08T05:42:05.239Z,8.90
2023-04-08T05:44:33.552Z,8.86
2023-04-08T05:47:01.760Z,8.84
2023-04-08T05:49:30.044Z,8.83
2023-04-08T05:51:58.105Z,8.84
2023-04-08T05:54:26.487Z,8.85
2023-04-08T05:56:56.036Z,8.84
2023-04-08T05:59:24.214Z,8.86
2023-04-08T06:01:52.405Z,8.93
2023-04-08T06:04:20.971Z,8.93
2023-04-08T06:06:49.141Z,8.96
2023-04-08T06:09:17.249Z,9.00
2023-04-08T06:11:47.327Z,9.05
2023-04-08T06:14:16.935Z,9.10
2023-04-08T06:16:45.139Z,9.14
2023-04-08T06:19:13.443Z,9.19
2023-04-08T06:21:41.814Z,9.21
2023-04-08T06:24:09.917Z,9.27
2023-04-08T06:26:38.068Z,9.30
2023-04-08T06:29:06.296Z,9.30
2023-04-08T06:31:35.834Z,9.37
2023-04-08T06:34:03.989Z,9.36
2023-04-08T06:36:32.248Z,9.46
2023-04-08T06:39:00.528Z,9.55
2023-04-08T06:41:28.669Z,9.54
2023-04-08T06:43:56.770Z,9.60
2023-04-08T06:46:25.070Z,9.61
2023-04-08T06:48:55.700Z,9.67
2023-04-08T06:51:23.856Z,9.70
2023-04-08T06:53:52.181Z,9.72
2023-04-08T06:56:21.518Z,9.75
2023-04-08T06:58:49.841Z,9.74
2023-04-08T07:01:18.097Z,9.76
2023-04-08T07:03:46.363Z,9.78
2023-04-08T07:06:16.190Z,9.81
2023-04-08T07:08:44.323Z,9.81
2023-04-08T07:11:12.437Z,9.85
2023-04-08T07:13:40.554Z,9.85
2023-04-08T07:16:08.722Z,9.91
2023-04-08T07:18:37.047Z,9.95
2023-04-08T07:21:05.632Z,9.96
2023-04-08T07:23:35.146Z,9.97
2023-04-08T07:26:05.030Z,10.04
2023-04-08T07:28:33.334Z,10.08
2023-04-08T07:31:11.427Z,10.11
2023-04-08T07:33:39.570Z,10.15
2023-04-08T07:36:07.873Z,10.14
2023-04-08T07:38:37.520Z,10.15
2023-04-08T07:41:05.945Z,10.14
2023-04-08T07:43:37.393Z,10.17
2023-04-08T07:46:05.687Z,10.21
2023-04-08T07:48:34.569Z,10.30
2023-04-08T07:51:08.402Z,10.32
2023-04-08T07:53:40.905Z,10.39
2023-04-08T07:56:13.389Z,10.47
2023-04-08T07:58:41.933Z,10.53
2023-04-08T08:01:18.114Z,10.53
2023-04-08T08:03:48.047Z,10.52
2023-04-08T08:06:16.758Z,10.58
2023-04-08T08:08:47.060Z,10.61
2023-04-08T08:11:15.325Z,10.72
2023-04-08T08:13:43.414Z,10.91
2023-04-08T08:16:12.165Z,11.00
2023-04-08T08:18:41.513Z,11.02
2023-04-08T08:21:10.318Z,11.13
2023-04-08T08:23:38.718Z,11.27
2023-04-08T08:26:11.071Z,11.40
2023-04-08T08:28:39.824Z,11.52
2023-04-08T08:31:08.137Z,11.61
2023-04-08T08:33:36.673Z,11.65
2023-04-08T08:36:06.808Z,11.56
2023-04-08T08:38:35.119Z,11.61
2023-04-08T08:41:04.452Z,11.68
2023-04-08T08:43:34.787Z,11.83
2023-04-08T08:46:03.752Z,11.97
2023-04-08T08:48:34.199Z,12.18
2023-04-08T08:51:02.602Z,12.32
2023-04-08T08:53:35.716Z,12.41
2023-04-08T08:58:37.592Z,12.69
2023-04-08T09:01:32.495Z,12.75
2023-04-08T09:04:12.786Z,12.89
2023-04-08T09:06:41.653Z,13.00
2023-04-08T09:09:12.797Z,13.08
2023-04-08T09:11:42.066Z,13.17
2023-04-08T09:14:22.965Z,13.28
2023-04-08T09:16:51.702Z,13.40
2023-04-08T09:19:20.448Z,13.46
2023-04-08T09:22:07.469Z,13.52
2023-04-08T09:24:37.347Z,13.58
2023-04-08T09:27:06.394Z,13.68
2023-04-08T09:29:39.946Z,13.70
2023-04-08T09:32:08.443Z,13.82
2023-04-08T09:34:36.892Z,13.76
2023-04-08T09:37:05.182Z,13.65
2023-04-08T09:39:33.378Z,13.48
2023-04-08T09:42:02.852Z,13.51
2023-04-08T09:44:32.044Z,13.33
2023-04-08T09:47:10.154Z,13.22
2023-04-08T09:49:43.613Z,13.26
2023-04-08T09:52:16.253Z,13.15
2023-04-08T09:54:50.095Z,13.25
2023-04-08T09:57:25.266Z,13.33
2023-04-08T09:59:59.189Z,13.42
2023-04-08T10:02:36.759Z,13.46
2023-04-08T10:05:08.302Z,13.48
2023-04-08T10:07:36.929Z,13.50
2023-04-08T10:10:05.873Z,13.51
2023-04-08T10:12:34.501Z,13.51
2023-04-08T10:15:25.153Z,13.69
2023-04-08T10:17:55.511Z,13.74
2023-04-08T10:20:46.098Z,13.88
2023-04-08T10:23:15.662Z,14.03
2023-04-08T10:25:45.305Z,14.14
2023-04-08T10:28:27.342Z,14.23
2023-04-08T10:30:57.521Z,14.36
2023-04-08T10:33:36.049Z,14.37
2023-04-08T10:36:11.851Z,14.34
2023-04-08T10:38:40.246Z,14.40
2023-04-08T10:41:08.464Z,14.31
2023-04-08T10:43:37.311Z,14.46
2023-04-08T10:46:06.562Z,14.39
2023-04-08T10:48:37.935Z,14.42
2023-04-08T10:51:07.002Z,14.45
2023-04-08T10:53:36.643Z,14.40
2023-04-08T10:56:06.551Z,14.39
2023-04-08T10:58:35.349Z,14.29
2023-04-08T11:01:08.482Z,14.15
2023-04-08T11:03:38.428Z,14.13
2023-04-08T11:06:07.580Z,14.06
2023-04-08T11:08:37.915Z,14.12
2023-04-08T11:11:09.184Z,14.13
2023-04-08T11:13:37.823Z,14.04
2023-04-08T11:16:17.251Z,14.06
2023-04-08T11:18:48.320Z,14.17
2023-04-08T11:21:17.395Z,14.06
2023-04-08T11:23:45.596Z,14.17
2023-04-08T11:26:15.243Z,14.37
2023-04-08T11:28:43.478Z,14.43
2023-04-08T11:31:12.329Z,14.38
2023-04-08T11:33:48.912Z,14.07
2023-04-08T11:36:19.180Z,13.87
2023-04-08T11:38:48.140Z,13.49
2023-04-08T11:41:17.586Z,13.38
2023-04-08T11:43:56.333Z,13.25
2023-04-08T11:46:25.064Z,13.26
2023-04-08T11:49:06.079Z,13.42
2023-04-08T11:51:35.571Z,13.68
2023-04-08T11:54:07.462Z,13.89
2023-04-08T11:56:47.090Z,14.04
2023-04-08T11:59:15.736Z,14.19
2023-04-08T12:01:43.897Z,14.24
2023-04-08T12:04:13.478Z,14.13
2023-04-08T12:06:43.685Z,14.19
2023-04-08T12:09:11.897Z,14.40
2023-04-08T12:11:40.090Z,14.27
2023-04-08T12:14:08.166Z,14.07
2023-04-08T12:16:36.514Z,14.03
2023-04-08T12:19:04.810Z,13.89
2023-04-08T12:21:34.660Z,13.79
2023-04-08T12:24:03.187Z,13.78
2023-04-08T12:26:31.360Z,13.96
2023-04-08T12:28:59.395Z,14.15
2023-04-08T12:31:28.672Z,14.34
2023-04-08T12:33:57.008Z,14.24
2023-04-08T12:36:25.411Z,14.14
2023-04-08T12:38:54.980Z,13.99
2023-04-08T12:41:23.177Z,14.07
2023-04-08T12:43:51.261Z,14.20
2023-04-08T12:46:19.443Z,14.20
2023-04-08T12:48:48.677Z,14.13
2023-04-08T12:51:17.032Z,14.03
2023-04-08T12:53:45.274Z,13.96
2023-04-08T12:56:14.700Z,13.91
2023-04-08T12:58:42.800Z,13.91
2023-04-08T13:01:12.696Z,13.74
2023-04-08T13:03:44.375Z,13.72
2023-04-08T13:06:13.813Z,13.79
2023-04-08T13:08:41.981Z,13.81
2023-04-08T13:11:10.564Z,13.72
2023-04-08T13:13:40.218Z,13.67
2023-04-08T13:16:09.592Z,13.71
2023-04-08T13:18:37.805Z,13.80
2023-04-08T13:21:06.316Z,13.76
2023-04-08T13:23:34.423Z,13.72
2023-04-08T13:26:03.045Z,13.66
2023-04-08T13:28:31.136Z,13.51
2023-04-08T13:31:00.693Z,13.44
2023-04-08T13:33:28.922Z,13.49
2023-04-08T13:35:57.207Z,13.41
2023-04-08T13:38:25.548Z,13.48
2023-04-08T13:40:53.746Z,13.39
2023-04-08T13:43:22.715Z,13.42
2023-04-08T13:45:50.958Z,13.35
2023-04-08T13:48:21.553Z,13.36
2023-04-08T13:50:50.285Z,13.36
2023-04-08T13:53:18.424Z,13.22
2023-04-08T13:55:46.699Z,13.32
2023-04-08T13:58:23.448Z,13.32
2023-04-08T14:00:52.661Z,13.39
2023-04-08T14:03:22.646Z,13.48
2023-04-08T14:05:51.247Z,13.52
2023-04-08T14:08:25.300Z,13.51
2023-04-08T14:10:53.892Z,13.55
2023-04-08T14:13:22.138Z,13.52
2023-04-08T14:15:50.302Z,13.55
2023-04-08T14:18:18.458Z,13.56
2023-04-08T14:20:48.014Z,13.53
2023-04-08T14:23:17.075Z,13.59
2023-04-08T14:25:45.213Z,13.62
2023-04-08T14:28:13.486Z,13.62
2023-04-08T14:30:41.968Z,13.49
2023-04-08T14:33:10.183Z,13.41
2023-04-08T14:35:38.419Z,13.40
2023-04-08T14:38:07.992Z,13.36
2023-04-08T14:40:37.564Z,13.34
2023-04-08T14:43:06.384Z,13.33
2023-04-08T14:45:34.543Z,13.36
2023-04-08T14:48:02.741Z,13.36
2023-04-08T14:50:31.781Z,13.39
2023-04-08T14:53:00.219Z,13.38
2023-04-08T14:55:30.211Z,13.44
2023-04-08T14:58:00.831Z,13.48
2023-04-08T15:00:29.733Z,13.51
2023-04-08T15:02:57.959Z,13.54
2023-04-08T15:05:26.697Z,13.64
2023-04-08T15:07:55.560Z,13.64
2023-04-08T15:10:23.680Z,13.68
2023-04-08T15:12:53.304Z,13.72
2023-04-08T15:15:21.519Z,13.75
2023-04-08T15:17:51.648Z,13.75
2023-04-08T15:20:20.400Z,13.73
2023-04-08T15:22:48.674Z,13.78
2023-04-08T15:25:17.044Z,13.80
2023-04-08T15:27:45.238Z,13.79
2023-04-08T15:30:14.950Z,13.80
2023-04-08T15:32:43.210Z,13.78
2023-04-08T15:35:12.185Z,13.77
2023-04-08T15:37:40.453Z,13.77
2023-04-08T15:40:10.060Z,13.75
2023-04-08T15:42:38.206Z,13.76
2023-04-08T15:45:06.807Z,13.80
2023-04-08T15:47:37.012Z,13.82
2023-04-08T15:50:05.857Z,13.79
2023-04-08T15:52:35.302Z,13.82
2023-04-08T15:55:03.845Z,13.81
2023-04-08T15:57:32.523Z,13.82
2023-04-08T16:00:00.914Z,13.79
2023-04-08T16:02:29.788Z,13.79
2023-04-08T16:04:59.544Z,13.78
2023-04-08T16:07:27.847Z,13.77
2023-04-08T16:09:56.061Z,13.74
2023-04-08T16:12:25.587Z,13.76
2023-04-08T16:14:53.754Z,13.72
2023-04-08T16:17:22.046Z,13.74
2023-04-08T16:19:52.188Z,13.75
2023-04-08T16:22:21.864Z,13.75
2023-04-08T16:24:50.172Z,13.71
2023-04-08T16:27:18.436Z,13.68
2023-04-08T16:29:46.830Z,13.62
2023-04-08T16:32:14.984Z,13.54
2023-04-08T16:34:43.146Z,13.45
2023-04-08T16:37:12.253Z,13.40
2023-04-08T16:39:42.641Z,13.22
2023-04-08T16:42:10.778Z,13.19
2023-04-08T16:44:38.838Z,13.19
2023-04-08T16:47:07.127Z,13.09
2023-04-08T16:49:35.174Z,13.12
2023-04-08T16:52:03.238Z,13.09
2023-04-08T16:54:31.504Z,13.13
2023-04-08T16:57:00.937Z,13.16
2023-04-08T16:59:29.455Z,13.19
2023-04-08T17:01:58.555Z,13.25
2023-04-08T17:04:26.734Z,13.27
2023-04-08T17:06:54.841Z,13.19
2023-04-08T17:09:23.410Z,13.06
2023-04-08T17:11:51.528Z,13.00
2023-04-08T17:14:21.320Z,13.05
2023-04-08T17:16:49.687Z,12.98
2023-04-08T17:19:17.982Z,13.02
2023-04-08T17:21:46.395Z,12.94
2023-04-08T17:24:14.528Z,12.88
2023-04-08T17:26:43.203Z,12.93
2023-04-08T17:29:11.311Z,12.82
2023-04-08T17:31:41.565Z,12.77
2023-04-08T17:34:09.696Z,12.79
2023-04-08T17:36:37.857Z,12.73
2023-04-08T17:39:06.194Z,12.74
2023-04-08T17:41:40.407Z,12.76
2023-04-08T17:44:09.295Z,12.63
2023-04-08T17:46:37.521Z,12.68
2023-04-08T17:49:07.205Z,12.58
2023-04-08T17:51:35.616Z,12.54
2023-04-08T17:54:04.617Z,12.45
2023-04-08T17:56:33.468Z,12.51
2023-04-08T17:59:01.899Z,12.59
2023-04-08T18:01:30.411Z,12.64
2023-04-08T18:03:58.714Z,12.67
2023-04-08T18:06:28.397Z,12.68
2023-04-08T18:08:56.751Z,12.69
2023-04-08T18:11:26.690Z,12.68
2023-04-08T18:13:54.999Z,12.68
2023-04-08T18:16:23.538Z,12.65
2023-04-08T18:18:51.742Z,12.59
2023-04-08T18:21:19.894Z,12.64
2023-04-08T18:23:51.070Z,12.68
2023-04-08T18:26:19.544Z,12.71
2023-04-08T18:28:47.696Z,12.66
2023-04-08T18:31:16.776Z,12.65
2023-04-08T18:33:45.116Z,12.64
2023-04-08T18:36:14.039Z,12.63
2023-04-08T18:38:42.260Z,12.60
2023-04-08T18:41:13.460Z,12.60
2023-04-08T18:43:42.091Z,12.53
2023-04-08T18:46:10.514Z,12.53
2023-04-08T18:48:38.696Z,12.43
2023-04-08T18:51:07.073Z,12.39
2023-04-08T18:53:35.271Z,12.34
2023-04-08T18:56:03.458Z,12.33
2023-04-08T18:58:33.619Z,12.25
2023-04-08T19:01:01.682Z,12.20
2023-04-08T19:03:29.843Z,12.17
2023-04-08T19:05:58.130Z,12.09
2023-04-08T19:08:26.661Z,12.06
2023-04-08T19:10:54.888Z,12.03
2023-04-08T19:13:23.892Z,12.01
2023-04-08T19:15:53.518Z,11.97
2023-04-08T19:18:21.680Z,11.93
2023-04-08T19:21:08.802Z,11.87
2023-04-08T19:23:36.966Z,11.82
2023-04-08T19:26:06.840Z,11.85
2023-04-08T19:28:36.356Z,11.82
2023-04-08T19:31:06.082Z,11.80
2023-04-08T19:33:34.283Z,11.76
2023-04-08T19:36:03.171Z,11.77
2023-04-08T19:38:31.521Z,11.74
2023-04-08T19:40:59.688Z,11.73
2023-04-08T19:43:27.993Z,11.71
2023-04-08T19:45:56.111Z,11.65
2023-04-08T19:48:26.082Z,11.64
2023-04-08T19:50:54.362Z,11.65
2023-04-08T19:53:22.768Z,11.61
2023-04-08T19:55:50.882Z,11.58
2023-04-08T19:58:18.980Z,11.58
2023-04-08T20:00:47.164Z,11.58
2023-04-08T20:03:15.747Z,11.54
2023-04-08T20:05:46.868Z,11.57
2023-04-08T20:08:14.994Z,11.54
2023-04-08T20:10:43.238Z,11.57
2023-04-08T20:13:11.535Z,11.56
2023-04-08T20:15:39.636Z,11.58
2023-04-08T20:18:07.817Z,11.56
2023-04-08T20:20:36.326Z,11.52
2023-04-08T20:23:05.897Z,11.52
2023-04-08T20:25:34.525Z,11.50
2023-04-08T20:28:03.182Z,11.49
2023-04-08T20:30:31.382Z,11.50
2023-04-08T20:32:59.541Z,11.50
2023-04-08T20:35:27.951Z,11.50
2023-04-08T20:37:56.231Z,11.52
2023-04-08T20:40:25.764Z,11.50
2023-04-08T20:42:53.938Z,11.48
2023-04-08T20:45:22.975Z,11.50
2023-04-08T20:47:51.141Z,11.52
2023-04-08T20:50:19.398Z,11.52
2023-04-08T20:52:48.352Z,11.49
2023-04-08T20:55:16.955Z,11.50
2023-04-08T20:57:47.940Z,11.49
2023-04-08T21:00:17.102Z,11.47
2023-04-08T21:02:45.371Z,11.45
2023-04-08T21:05:13.716Z,11.43
2023-04-08T21:07:44.490Z,11.43
2023-04-08T21:10:14.305Z,11.43
2023-04-08T21:12:42.623Z,11.43
2023-04-08T21:15:12.581Z,11.38
2023-04-08T21:17:40.846Z,11.39
2023-04-08T21:20:10.143Z,11.38
2023-04-08T21:22:38.283Z,11.40
2023-04-08T21:25:07.784Z,11.40
2023-04-08T21:27:37.750Z,11.39
2023-04-08T21:30:06.501Z,11.36
2023-04-08T21:32:36.200Z,11.34
2023-04-08T21:35:04.530Z,11.27
2023-04-08T21:37:32.688Z,11.32
2023-04-08T21:40:00.827Z,11.23
2023-04-08T21:42:28.966Z,11.23
2023-04-08T21:44:57.665Z,11.25
2023-04-08T21:47:26.114Z,11.32
2023-04-08T21:49:55.961Z,11.25
2023-04-08T21:52:24.309Z,11.29
2023-04-08T21:54:52.502Z,11.28
2023-04-08T21:57:20.885Z,11.29
2023-04-08T21:59:49.620Z,11.26
2023-04-08T22:02:17.839Z,11.27
2023-04-08T22:04:46.178Z,11.26
2023-04-08T22:07:15.748Z,11.22
2023-04-08T22:09:44.048Z,11.20
2023-04-08T22:12:12.428Z,11.21
2023-04-08T22:14:40.671Z,11.21
2023-04-08T22:17:08.868Z,11.17
2023-04-08T22:19:37.144Z,11.16
2023-04-08T22:22:05.400Z,11.21
2023-04-08T22:24:34.835Z,11.21
2023-04-08T22:27:03.514Z,11.22
2023-04-08T22:29:31.679Z,11.22
2023-04-08T22:31:59.717Z,11.22
2023-04-08T22:34:27.828Z,11.26
2023-04-08T22:36:56.067Z,11.21
2023-04-08T22:39:26.155Z,11.23
2023-04-08T22:41:56.005Z,11.23
2023-04-08T22:44:24.169Z,11.24
2023-04-08T22:46:52.596Z,11.23
2023-04-08T22:49:20.748Z,11.23
2023-04-08T22:51:49.310Z,11.25
2023-04-08T22:54:18.256Z,11.26
2023-04-08T22:56:46.508Z,11.23
2023-04-08T22:59:16.558Z,11.20
2023-04-08T23:01:45.400Z,11.23
2023-04-08T23:04:13.637Z,11.21
2023-04-08T23:06:41.770Z,11.22
2023-04-08T23:09:09.908Z,11.20
2023-04-08T23:11:38.016Z,11.20
2023-04-08T23:14:06.130Z,11.25
2023-04-08T23:16:35.912Z,11.20
2023-04-08T23:19:04.349Z,11.17
2023-04-08T23:21:32.579Z,11.13
2023-04-08T23:24:00.726Z,11.11
2023-04-08T23:26:29.384Z,11.07
2023-04-08T23:28:57.694Z,11.06
2023-04-08T23:31:25.940Z,11.04
2023-04-08T23:33:55.722Z,11.04
2023-04-08T23:36:23.783Z,11.01
2023-04-08T23:38:52.193Z,10.97
2023-04-08T23:41:20.793Z,10.95
2023-04-08T23:43:48.970Z,10.93
2023-04-08T23:46:17.269Z,10.89
2023-04-08T23:48:45.426Z,10.88
2023-04-08T23:51:15.039Z,10.86
2023-04-08T23:53:43.295Z,10.83
2023-04-08T23:56:11.649Z,10.81
2023-04-08T23:58:39.783Z,10.83
